Time;durP1;ratioP1;P1;durP2;ratioP2;P2;SDS_P1;SDS_P2;PMS_P1;PMS_P2;Temp;Humidity;BMP_temperature;BMP_pressure;BME280_temperature;BME280_humidity;BME280_pressure;Samples;Min_cycle;Max_cycle;Signal;HPM_P1;HPM_P2
2023/03/25 00:00:14;;;;;;;13.17;5.70;;;;;;;;;;5019256;28;20226;-69
2023/03/25 00:02:43;;;;;;;10.57;5.17;;;;;;;;;;5031822;28;20727;-68
2023/03/25 00:05:11;;;;;;;15.23;5.70;;;;;;;;;;5046903;28;20456;-69
2023/03/25 00:07:38;;;;;;;14.87;5.73;;;;;;;;;;5049306;28;20281;-68
2023/03/25 00:10:05;;;;;;;14.50;5.50;;;;;;;;;;5048677;28;20205;-68
2023/03/25 00:12:32;;;;;;;11.83;5.67;;;;;;;;;;5045727;28;20210;-68
2023/03/25 00:14:58;;;;;;;13.73;6.20;;;;;;;;;;5052992;28;20217;-68
2023/03/25 00:17:27;;;;;;;14.30;5.77;;;;;;;;;;5052468;28;20198;-68
2023/03/25 00:19:55;;;;;;;14.50;6.30;;;;;;;;;;5052357;28;20499;-68
2023/03/25 00:22:22;;;;;;;14.30;6.90;;;;;;;;;;5051992;28;20205;-68
2023/03/25 00:24:48;;;;;;;12.87;5.93;;;;;;;;;;5051591;28;20502;-68
2023/03/25 00:27:16;;;;;;;11.70;5.80;;;;;;;;;;5050211;28;20241;-68
2023/03/25 00:29:43;;;;;;;11.37;6.13;;;;;;;;;;5049387;28;20194;-68
2023/03/25 00:32:13;;;;;;;15.57;6.77;;;;;;;;;;5031481;28;20442;-68
2023/03/25 00:34:45;;;;;;;15.57;6.77;;;;;;;;;;5030846;28;20221;-68
2023/03/25 00:37:16;;;;;;;15.63;6.30;;;;;;;;;;5048021;28;20183;-68
2023/03/25 00:39:44;;;;;;;11.00;6.20;;;;;;;;;;5056370;28;20182;-68
2023/03/25 00:42:12;;;;;;;10.83;5.93;;;;;;;;;;5048177;28;20305;-68
2023/03/25 00:44:39;;;;;;;13.60;6.60;;;;;;;;;;5010415;28;20586;-68
2023/03/25 00:47:07;;;;;;;15.90;5.97;;;;;;;;;;5010140;28;20462;-68
2023/03/25 00:49:34;;;;;;;10.63;6.70;;;;;;;;;;5024946;28;20203;-68
2023/03/25 00:52:01;;;;;;;12.17;6.80;;;;;;;;;;5028536;28;20201;-68
2023/03/25 00:54:27;;;;;;;15.10;7.60;;;;;;;;;;5010578;28;20532;-68
2023/03/25 00:56:54;;;;;;;12.67;7.00;;;;;;;;;;5010770;28;20282;-68
2023/03/25 00:59:21;;;;;;;11.90;6.87;;;;;;;;;;5028282;28;20180;-68
2023/03/25 01:01:51;;;;;;;17.27;7.90;;;;;;;;;;5028155;28;20453;-68
2023/03/25 01:04:18;;;;;;;15.03;8.13;;;;;;;;;;5010571;28;20200;-68
2023/03/25 01:06:50;;;;;;;15.77;8.93;;;;;;;;;;5027376;28;20593;-69
2023/03/25 01:09:18;;;;;;;18.40;9.37;;;;;;;;;;5028269;28;20188;-68
2023/03/25 01:11:45;;;;;;;13.80;8.63;;;;;;;;;;4994758;28;20197;-68
2023/03/25 01:14:16;;;;;;;17.10;9.83;;;;;;;;;;5009947;28;20226;-68
2023/03/25 01:16:43;;;;;;;14.53;9.17;;;;;;;;;;5009926;28;20511;-68
2023/03/25 01:19:10;;;;;;;13.87;9.13;;;;;;;;;;5027906;28;20187;-69
2023/03/25 01:21:37;;;;;;;16.30;9.90;;;;;;;;;;4994251;28;20484;-68
2023/03/25 01:24:04;;;;;;;16.43;9.63;;;;;;;;;;5010509;28;20436;-68
2023/03/25 01:26:31;;;;;;;15.70;9.50;;;;;;;;;;5009340;28;20269;-68
2023/03/25 01:28:58;;;;;;;15.10;10.07;;;;;;;;;;5027802;28;20191;-68
2023/03/25 01:31:28;;;;;;;15.20;9.67;;;;;;;;;;5027696;28;20187;-67
2023/03/25 01:33:56;;;;;;;16.87;9.20;;;;;;;;;;5027754;28;20215;-68
2023/03/25 01:36:23;;;;;;;14.50;9.83;;;;;;;;;;5010384;28;20666;-68
2023/03/25 01:38:50;;;;;;;15.83;9.70;;;;;;;;;;5026839;28;20461;-68
2023/03/25 01:41:17;;;;;;;15.53;9.63;;;;;;;;;;5010434;28;20516;-68
2023/03/25 02:18:55;;;;;;;10.50;6.53;;;;;;;;;;5033108;28;20561;-67
2023/03/25 02:21:55;;;;;;;12.17;7.07;;;;;;;;;;5032950;28;20459;-67
2023/03/25 02:24:28;;;;;;;14.40;7.43;;;;;;;;;;4987426;28;20438;-67
2023/03/25 02:26:58;;;;;;;12.53;7.10;;;;;;;;;;5013187;28;20200;-67
2023/03/25 02:29:35;;;;;;;16.67;7.90;;;;;;;;;;5051102;28;20612;-67
2023/03/25 02:32:09;;;;;;;12.50;7.07;;;;;;;;;;5017131;28;20194;-67
2023/03/25 02:34:36;;;;;;;12.47;6.90;;;;;;;;;;5032914;28;20203;-67
2023/03/25 02:37:19;;;;;;;12.83;6.33;;;;;;;;;;5032274;28;20190;-67
2023/03/25 02:39:51;;;;;;;13.33;6.93;;;;;;;;;;5032008;28;20445;-67
2023/03/25 02:42:21;;;;;;;10.30;6.13;;;;;;;;;;5032702;28;20924;-67
2023/03/25 02:44:53;;;;;;;13.33;6.53;;;;;;;;;;5032246;28;20226;-68
2023/03/25 02:47:20;;;;;;;12.23;6.73;;;;;;;;;;5032918;28;20445;-67
2023/03/25 02:49:57;;;;;;;10.37;6.53;;;;;;;;;;5016201;28;20294;-67
2023/03/25 02:52:27;;;;;;;9.80;6.50;;;;;;;;;;5034402;28;20682;-68
2023/03/25 02:55:00;;;;;;;10.57;5.97;;;;;;;;;;5023804;28;20464;-67
2023/03/25 02:57:28;;;;;;;11.97;6.90;;;;;;;;;;5017151;28;20205;-68
2023/03/25 02:59:55;;;;;;;9.93;6.00;;;;;;;;;;5032236;28;20281;-67
2023/03/25 03:02:24;;;;;;;12.00;6.20;;;;;;;;;;5032924;28;20191;-68
2023/03/25 03:04:52;;;;;;;12.17;5.80;;;;;;;;;;5050110;28;20583;-67
2023/03/25 03:07:26;;;;;;;12.73;5.80;;;;;;;;;;5049481;28;20718;-67
2023/03/25 03:10:03;;;;;;;9.80;6.00;;;;;;;;;;5011168;28;20465;-68
2023/03/25 03:12:51;;;;;;;9.07;6.00;;;;;;;;;;5030139;28;20551;-69
2023/03/25 03:15:32;;;;;;;11.67;5.57;;;;;;;;;;5021688;28;20530;-68
2023/03/25 03:18:02;;;;;;;11.03;6.00;;;;;;;;;;5016188;28;20205;-68
2023/03/25 03:20:35;;;;;;;11.47;5.30;;;;;;;;;;5049817;28;20441;-68
2023/03/25 03:23:04;;;;;;;8.60;5.50;;;;;;;;;;5050217;28;20190;-68
2023/03/25 03:25:41;;;;;;;9.87;5.80;;;;;;;;;;5032438;28;20183;-67
2023/03/25 03:28:08;;;;;;;10.90;5.77;;;;;;;;;;5032076;28;20252;-68
2023/03/25 03:30:45;;;;;;;8.00;4.97;;;;;;;;;;5047585;28;20666;-68
2023/03/25 03:33:20;;;;;;;9.93;5.67;;;;;;;;;;5049837;28;20281;-68
2023/03/25 03:35:49;;;;;;;8.10;5.63;;;;;;;;;;5049197;28;20225;-68
2023/03/25 03:38:17;;;;;;;7.63;4.77;;;;;;;;;;5032298;28;20183;-67
2023/03/25 03:40:50;;;;;;;7.77;5.63;;;;;;;;;;5032132;28;20198;-68
2023/03/25 03:43:27;;;;;;;12.17;5.90;;;;;;;;;;5031600;28;20230;-67
2023/03/25 03:45:55;;;;;;;12.20;6.37;;;;;;;;;;5031687;28;20213;-67
2023/03/25 03:48:25;;;;;;;9.73;5.30;;;;;;;;;;5032009;28;20195;-68
2023/03/25 03:50:55;;;;;;;7.50;4.47;;;;;;;;;;5042524;28;20453;-67
2023/03/25 03:53:25;;;;;;;9.83;4.70;;;;;;;;;;5029665;28;20195;-67
2023/03/25 03:55:52;;;;;;;6.50;4.53;;;;;;;;;;5029218;28;20215;-67
2023/03/25 03:58:29;;;;;;;6.60;4.27;;;;;;;;;;5028183;28;21104;-68
2023/03/25 04:01:08;;;;;;;12.27;4.67;;;;;;;;;;5031703;28;20611;-68
2023/03/25 04:03:37;;;;;;;10.90;4.67;;;;;;;;;;5015011;28;20280;-67
2023/03/25 04:06:12;;;;;;;8.90;4.70;;;;;;;;;;5032112;28;20183;-68
2023/03/25 04:08:42;;;;;;;7.77;4.57;;;;;;;;;;5027346;28;20532;-67
2023/03/25 04:11:14;;;;;;;8.33;4.53;;;;;;;;;;5012450;28;20214;-67
2023/03/25 04:13:41;;;;;;;10.17;4.77;;;;;;;;;;5033882;28;20199;-67
2023/03/25 04:16:08;;;;;;;7.20;4.60;;;;;;;;;;5048922;28;20747;-68
2023/03/25 04:18:35;;;;;;;9.37;5.27;;;;;;;;;;5048245;28;20190;-67
2023/03/25 04:21:02;;;;;;;8.23;4.87;;;;;;;;;;5048728;28;20562;-67
2023/03/25 04:23:29;;;;;;;8.30;4.80;;;;;;;;;;5048054;28;20216;-67
2023/03/25 04:25:56;;;;;;;7.97;4.63;;;;;;;;;;5048816;28;20183;-68
2023/03/25 04:28:24;;;;;;;8.37;4.53;;;;;;;;;;5031147;28;20540;-68
2023/03/25 04:30:54;;;;;;;8.33;3.70;;;;;;;;;;5031090;28;20429;-67
2023/03/25 04:33:21;;;;;;;11.73;4.83;;;;;;;;;;5027074;28;20477;-68
2023/03/25 04:35:50;;;;;;;9.07;5.10;;;;;;;;;;5028595;28;20725;-68
2023/03/25 04:38:19;;;;;;;7.30;4.80;;;;;;;;;;5031859;28;20450;-68
2023/03/25 04:40:46;;;;;;;10.37;5.50;;;;;;;;;;5048425;28;20436;-69
2023/03/25 04:43:13;;;;;;;8.50;5.07;;;;;;;;;;5013856;28;20235;-69
2023/03/25 04:45:48;;;;;;;10.37;5.87;;;;;;;;;;5048637;28;20194;-69
2023/03/25 04:48:20;;;;;;;10.00;4.90;;;;;;;;;;5015055;28;20205;-69
2023/03/25 04:50:47;;;;;;;11.83;4.73;;;;;;;;;;5030740;28;20198;-69
2023/03/25 04:53:14;;;;;;;8.20;5.13;;;;;;;;;;5046464;28;20562;-69
2023/03/25 04:55:46;;;;;;;7.53;4.77;;;;;;;;;;5048500;28;20222;-69
2023/03/25 04:58:16;;;;;;;7.03;4.57;;;;;;;;;;5048132;28;20430;-69
2023/03/25 05:00:43;;;;;;;9.73;4.20;;;;;;;;;;5030630;28;20205;-69
2023/03/25 05:03:10;;;;;;;9.13;4.20;;;;;;;;;;5030824;28;20230;-69
2023/03/25 05:05:37;;;;;;;6.77;4.67;;;;;;;;;;5050056;28;20191;-69
2023/03/25 05:08:04;;;;;;;7.60;4.30;;;;;;;;;;5013206;28;20210;-69
2023/03/25 05:10:31;;;;;;;9.80;5.63;;;;;;;;;;5047548;28;20194;-69
2023/03/25 05:12:58;;;;;;;10.87;5.43;;;;;;;;;;5047355;28;20221;-68
2023/03/25 05:15:25;;;;;;;12.77;6.07;;;;;;;;;;5013804;28;20199;-69
2023/03/25 05:17:52;;;;;;;9.93;5.07;;;;;;;;;;5048072;28;20221;-69
2023/03/25 05:20:18;;;;;;;8.13;5.20;;;;;;;;;;5047505;28;20193;-69
2023/03/25 05:22:45;;;;;;;6.30;4.60;;;;;;;;;;5047792;28;20194;-69
2023/03/25 05:25:12;;;;;;;6.17;4.63;;;;;;;;;;5047985;28;20305;-69
2023/03/25 05:27:38;;;;;;;7.30;4.50;;;;;;;;;;5048117;28;20286;-68
2023/03/25 05:30:05;;;;;;;7.23;4.37;;;;;;;;;;5038178;28;20253;-69
2023/03/25 05:32:32;;;;;;;7.77;4.70;;;;;;;;;;5027621;28;21012;-69
2023/03/25 05:34:59;;;;;;;6.97;3.77;;;;;;;;;;5038638;28;20666;-69
2023/03/25 05:37:26;;;;;;;6.80;3.77;;;;;;;;;;5047660;28;20917;-69
2023/03/25 05:39:53;;;;;;;6.43;4.10;;;;;;;;;;5047599;28;20203;-69
2023/03/25 05:42:23;;;;;;;6.50;3.90;;;;;;;;;;5029762;28;20227;-69
2023/03/25 05:44:50;;;;;;;5.50;4.00;;;;;;;;;;5048180;28;20197;-69
2023/03/25 05:47:19;;;;;;;8.83;3.90;;;;;;;;;;5030094;28;20183;-69
2023/03/25 05:49:45;;;;;;;7.00;4.37;;;;;;;;;;5047241;28;20293;-69
2023/03/25 05:52:12;;;;;;;7.43;4.23;;;;;;;;;;5012105;28;20195;-69
2023/03/25 05:54:40;;;;;;;5.90;3.80;;;;;;;;;;5047534;28;20682;-69
2023/03/25 05:57:08;;;;;;;5.90;4.17;;;;;;;;;;5047192;28;20202;-69
2023/03/25 05:59:37;;;;;;;5.97;4.10;;;;;;;;;;5046739;28;20218;-68
2023/03/25 06:02:06;;;;;;;5.57;3.83;;;;;;;;;;5047860;28;20593;-67
2023/03/25 06:04:36;;;;;;;6.07;3.60;;;;;;;;;;5046684;28;20697;-67
2023/03/25 06:07:12;;;;;;;6.00;3.37;;;;;;;;;;5047934;28;20292;-67
2023/03/25 06:09:44;;;;;;;6.80;3.73;;;;;;;;;;5025927;28;20199;-67
2023/03/25 06:12:15;;;;;;;6.37;4.30;;;;;;;;;;5027407;28;20203;-67
2023/03/25 06:14:44;;;;;;;4.73;3.30;;;;;;;;;;5034141;28;20287;-67
2023/03/25 06:17:14;;;;;;;8.60;3.80;;;;;;;;;;5047284;28;20194;-67
2023/03/25 06:19:40;;;;;;;7.07;3.80;;;;;;;;;;5047595;28;20187;-68
2023/03/25 06:22:08;;;;;;;6.97;4.23;;;;;;;;;;5047279;28;20240;-68
2023/03/25 06:24:36;;;;;;;8.43;4.80;;;;;;;;;;5047150;28;20195;-69
2023/03/25 06:27:03;;;;;;;6.80;4.30;;;;;;;;;;5047391;28;20660;-68
2023/03/25 06:29:30;;;;;;;7.07;4.07;;;;;;;;;;5045991;28;20580;-67
2023/03/25 06:31:58;;;;;;;7.03;4.10;;;;;;;;;;5041049;28;20192;-67
2023/03/25 06:34:27;;;;;;;6.53;4.20;;;;;;;;;;5055576;28;20190;-66
2023/03/25 06:36:53;;;;;;;12.97;5.47;;;;;;;;;;5049785;28;20308;-66
2023/03/25 06:39:20;;;;;;;6.47;4.23;;;;;;;;;;5048888;28;20195;-66
2023/03/25 06:41:47;;;;;;;6.10;4.03;;;;;;;;;;5032729;28;20204;-67
2023/03/25 06:44:20;;;;;;;8.47;4.30;;;;;;;;;;5044681;28;20228;-66
2023/03/25 06:47:23;;;;;;;9.87;5.63;;;;;;;;;;5022075;28;20552;-67
2023/03/25 06:49:49;;;;;;;6.43;4.20;;;;;;;;;;5036176;28;20253;-67
2023/03/25 06:52:16;;;;;;;8.37;4.30;;;;;;;;;;5052116;28;20253;-66
2023/03/25 06:54:43;;;;;;;7.30;4.00;;;;;;;;;;5047154;28;20314;-67
2023/03/25 06:57:09;;;;;;;9.43;3.80;;;;;;;;;;5046799;28;20215;-66
2023/03/25 06:59:37;;;;;;;6.87;3.53;;;;;;;;;;5044704;28;20189;-66
2023/03/25 07:02:03;;;;;;;7.83;4.13;;;;;;;;;;5047815;28;20286;-65
2023/03/25 07:04:30;;;;;;;7.03;4.17;;;;;;;;;;5046958;28;21020;-65
2023/03/25 07:06:57;;;;;;;11.13;5.50;;;;;;;;;;5046892;28;20218;-67
2023/03/25 07:09:24;;;;;;;7.97;4.40;;;;;;;;;;5045677;28;20203;-66
2023/03/25 07:11:51;;;;;;;6.67;4.10;;;;;;;;;;5046769;28;20313;-66
2023/03/25 07:14:17;;;;;;;7.23;3.27;;;;;;;;;;5057599;28;20194;-66
2023/03/25 07:16:44;;;;;;;4.73;2.97;;;;;;;;;;5066314;28;20226;-66
2023/03/25 07:19:11;;;;;;;7.63;3.60;;;;;;;;;;5047477;28;20194;-66
2023/03/25 07:21:38;;;;;;;6.67;3.20;;;;;;;;;;5047928;28;20225;-68
2023/03/25 07:24:05;;;;;;;6.63;3.23;;;;;;;;;;5043770;28;20202;-67
2023/03/25 07:26:32;;;;;;;5.67;3.20;;;;;;;;;;5011328;28;20206;-67
2023/03/25 07:28:59;;;;;;;6.70;3.90;;;;;;;;;;5046603;28;20281;-66
2023/03/25 07:31:25;;;;;;;9.40;4.10;;;;;;;;;;5044950;28;20201;-66
2023/03/25 07:33:52;;;;;;;4.97;3.27;;;;;;;;;;5058516;28;20182;-67
2023/03/25 07:36:20;;;;;;;6.43;3.10;;;;;;;;;;5038553;28;20251;-65
2023/03/25 07:38:47;;;;;;;4.13;2.70;;;;;;;;;;5048641;28;20198;-66
2023/03/25 07:41:14;;;;;;;7.37;3.13;;;;;;;;;;5045902;28;20210;-66
2023/03/25 07:44:01;;;;;;;5.93;2.83;;;;;;;;;;5033794;28;20276;-66
2023/03/25 07:46:30;;;;;;;5.37;2.80;;;;;;;;;;5028888;28;21056;-67
2023/03/25 07:48:57;;;;;;;5.97;2.90;;;;;;;;;;5046771;28;20183;-66
2023/03/25 07:51:27;;;;;;;8.40;3.53;;;;;;;;;;5046840;28;20255;-67
2023/03/25 07:53:54;;;;;;;5.83;2.70;;;;;;;;;;5050799;28;20649;-67
2023/03/25 07:56:30;;;;;;;6.00;2.97;;;;;;;;;;5027336;28;20218;-66
2023/03/25 07:58:57;;;;;;;4.27;2.57;;;;;;;;;;5046358;28;20191;-66
2023/03/25 08:01:23;;;;;;;6.10;3.10;;;;;;;;;;5045864;28;20628;-66
2023/03/25 08:03:50;;;;;;;6.33;3.10;;;;;;;;;;5051196;28;20433;-66
2023/03/25 08:06:17;;;;;;;5.20;2.87;;;;;;;;;;5052539;28;20195;-68
2023/03/25 08:08:43;;;;;;;6.60;2.90;;;;;;;;;;5046973;28;20195;-66
2023/03/25 08:11:10;;;;;;;5.73;3.27;;;;;;;;;;5045698;28;20194;-66
2023/03/25 08:13:37;;;;;;;5.93;2.97;;;;;;;;;;5050063;28;20288;-66
2023/03/25 08:16:09;;;;;;;4.07;2.80;;;;;;;;;;5054953;28;20238;-66
2023/03/25 08:18:36;;;;;;;6.33;3.17;;;;;;;;;;5028334;28;20191;-68
2023/03/25 08:21:02;;;;;;;5.03;3.20;;;;;;;;;;5046008;28;20712;-67
2023/03/25 08:23:29;;;;;;;4.93;3.37;;;;;;;;;;5048445;28;20240;-67
2023/03/25 08:25:56;;;;;;;9.97;3.30;;;;;;;;;;5053338;28;20187;-67
2023/03/25 08:28:23;;;;;;;6.63;3.07;;;;;;;;;;5027232;28;20191;-67
2023/03/25 08:30:53;;;;;;;5.80;3.10;;;;;;;;;;5045462;28;20193;-67
2023/03/25 08:33:32;;;;;;;6.37;2.63;;;;;;;;;;5051925;28;20644;-67
2023/03/25 08:36:00;;;;;;;6.07;2.80;;;;;;;;;;5046176;28;20261;-67
2023/03/25 08:38:30;;;;;;;8.33;3.33;;;;;;;;;;5033575;28;20317;-67
2023/03/25 08:41:00;;;;;;;4.93;2.70;;;;;;;;;;5044252;28;20198;-66
2023/03/25 08:43:26;;;;;;;4.80;2.77;;;;;;;;;;5050163;28;20800;-66
2023/03/25 08:45:53;;;;;;;6.33;2.90;;;;;;;;;;5046038;28;20281;-68
2023/03/25 08:48:21;;;;;;;7.43;3.17;;;;;;;;;;5045928;28;20194;-67
2023/03/25 08:50:49;;;;;;;5.10;2.77;;;;;;;;;;5046429;28;20209;-67
2023/03/25 08:53:16;;;;;;;6.13;3.10;;;;;;;;;;5034833;28;20198;-68
2023/03/25 08:55:43;;;;;;;6.43;3.30;;;;;;;;;;5043907;28;20670;-67
2023/03/25 08:58:11;;;;;;;7.37;3.13;;;;;;;;;;5046110;28;20511;-67
2023/03/25 09:00:42;;;;;;;8.47;3.23;;;;;;;;;;5044482;28;20187;-66
2023/03/25 09:03:09;;;;;;;7.00;3.10;;;;;;;;;;5045499;28;20191;-67
2023/03/25 09:05:37;;;;;;;4.77;2.47;;;;;;;;;;5053048;28;20182;-65
2023/03/25 09:08:05;;;;;;;7.53;2.70;;;;;;;;;;5047101;28;20193;-67
2023/03/25 09:10:31;;;;;;;7.53;2.70;;;;;;;;;;5051286;28;20195;-67
2023/03/25 09:12:58;;;;;;;8.50;2.80;;;;;;;;;;5037848;28;20625;-66
2023/03/25 09:15:25;;;;;;;5.87;3.07;;;;;;;;;;5047556;28;20229;-67
2023/03/25 09:17:52;;;;;;;6.17;2.80;;;;;;;;;;5048517;28;20197;-68
2023/03/25 09:20:19;;;;;;;7.43;2.57;;;;;;;;;;5045937;28;20758;-67
2023/03/25 09:22:46;;;;;;;10.67;3.73;;;;;;;;;;5049861;28;20187;-67
2023/03/25 09:25:13;;;;;;;7.27;3.63;;;;;;;;;;5047391;28;20199;-67
2023/03/25 09:27:39;;;;;;;5.03;3.33;;;;;;;;;;5047768;28;20226;-67
2023/03/25 09:30:07;;;;;;;5.93;3.23;;;;;;;;;;5047240;28;20240;-67
2023/03/25 09:32:33;;;;;;;5.30;3.13;;;;;;;;;;5046824;28;20191;-68
2023/03/25 09:35:01;;;;;;;6.87;3.60;;;;;;;;;;5039210;28;20665;-68
2023/03/25 09:37:28;;;;;;;6.90;4.20;;;;;;;;;;5046877;28;20228;-67
2023/03/25 09:39:55;;;;;;;7.23;3.73;;;;;;;;;;5046402;28;20224;-67
2023/03/25 09:42:34;;;;;;;8.27;3.97;;;;;;;;;;5046551;28;20265;-68
2023/03/25 09:45:19;;;;;;;10.40;4.13;;;;;;;;;;5042363;28;20194;-68
2023/03/25 09:48:00;;;;;;;7.17;3.87;;;;;;;;;;5049866;28;20194;-68
2023/03/25 09:50:27;;;;;;;7.63;3.80;;;;;;;;;;5028784;28;20191;-68
2023/03/25 09:53:00;;;;;;;9.30;4.10;;;;;;;;;;5028997;28;20210;-69
2023/03/25 09:55:28;;;;;;;5.17;3.37;;;;;;;;;;5046376;28;20605;-69
2023/03/25 09:57:57;;;;;;;6.77;3.67;;;;;;;;;;5046380;28;20225;-68
2023/03/25 10:00:24;;;;;;;9.07;3.77;;;;;;;;;;5020690;28;20199;-68
2023/03/25 10:03:04;;;;;;;7.33;4.17;;;;;;;;;;5048379;28;20550;-68
2023/03/25 10:05:50;;;;;;;9.00;4.00;;;;;;;;;;5028423;28;20618;-68
2023/03/25 10:08:33;;;;;;;10.63;4.43;;;;;;;;;;5046289;28;20218;-68
2023/03/25 10:11:03;;;;;;;7.30;3.60;;;;;;;;;;5045371;28;20194;-67
2023/03/25 10:13:50;;;;;;;6.50;3.90;;;;;;;;;;5046325;28;20317;-68
2023/03/25 10:16:16;;;;;;;6.27;3.43;;;;;;;;;;5047358;28;20360;-68
2023/03/25 10:19:02;;;;;;;6.10;3.43;;;;;;;;;;5038765;28;20747;-69
2023/03/25 10:21:36;;;;;;;6.20;2.70;;;;;;;;;;5048314;28;20203;-69
2023/03/25 10:24:21;;;;;;;7.47;2.93;;;;;;;;;;5023915;28;20685;-68
2023/03/25 10:26:51;;;;;;;7.03;3.00;;;;;;;;;;5045510;28;20218;-69
2023/03/25 10:29:22;;;;;;;7.97;3.50;;;;;;;;;;5045256;28;20212;-69
2023/03/25 10:31:51;;;;;;;5.83;2.53;;;;;;;;;;5029846;28;20720;-69
2023/03/25 10:34:19;;;;;;;6.53;2.90;;;;;;;;;;5031324;28;20257;-68
2023/03/25 10:36:48;;;;;;;4.87;2.47;;;;;;;;;;5048032;28;20851;-68
2023/03/25 10:39:18;;;;;;;6.00;2.60;;;;;;;;;;5031475;28;20225;-69
2023/03/25 10:41:46;;;;;;;4.53;2.10;;;;;;;;;;5037889;28;20194;-69
2023/03/25 10:44:13;;;;;;;5.73;3.57;;;;;;;;;;5028949;28;20230;-69
2023/03/25 10:46:47;;;;;;;7.70;3.70;;;;;;;;;;5047431;28;20191;-69
2023/03/25 10:49:20;;;;;;;4.13;1.93;;;;;;;;;;5027802;28;20191;-69
2023/03/25 10:51:51;;;;;;;5.80;2.40;;;;;;;;;;5014998;28;20236;-69
2023/03/25 10:54:18;;;;;;;3.97;2.53;;;;;;;;;;5049519;28;20218;-69
2023/03/25 10:56:49;;;;;;;4.70;2.20;;;;;;;;;;5048528;28;20225;-68
2023/03/25 10:59:26;;;;;;;3.73;1.97;;;;;;;;;;5046728;28;20191;-69
2023/03/25 11:01:53;;;;;;;2.43;1.70;;;;;;;;;;5029852;28;20557;-69
2023/03/25 11:04:20;;;;;;;5.00;1.97;;;;;;;;;;5031307;28;20193;-69
2023/03/25 11:06:51;;;;;;;4.10;2.27;;;;;;;;;;5030931;28;20249;-69
2023/03/25 11:09:31;;;;;;;4.20;2.10;;;;;;;;;;5042384;28;20220;-69
2023/03/25 11:11:58;;;;;;;2.67;1.70;;;;;;;;;;5045917;28;20592;-68
2023/03/25 11:14:26;;;;;;;3.10;1.90;;;;;;;;;;5031427;28;20286;-68
2023/03/25 11:16:54;;;;;;;4.07;2.10;;;;;;;;;;5030013;28;20660;-68
2023/03/25 11:19:27;;;;;;;2.17;1.77;;;;;;;;;;5049736;28;20197;-68
2023/03/25 11:21:57;;;;;;;2.60;1.80;;;;;;;;;;5059891;28;20195;-69
2023/03/25 11:24:27;;;;;;;3.97;2.00;;;;;;;;;;5037679;28;20199;-68
2023/03/25 11:26:54;;;;;;;3.53;2.20;;;;;;;;;;5029143;28;20195;-69
2023/03/25 11:29:20;;;;;;;4.77;2.27;;;;;;;;;;5047641;28;20199;-68
2023/03/25 11:31:57;;;;;;;3.07;2.00;;;;;;;;;;5011939;28;20194;-68
2023/03/25 11:34:25;;;;;;;1.83;1.37;;;;;;;;;;5051913;28;20187;-68
2023/03/25 11:36:54;;;;;;;1.03;0.90;;;;;;;;;;5019873;28;20221;-68
2023/03/25 11:39:25;;;;;;;3.07;1.60;;;;;;;;;;5049232;28;20278;-68
2023/03/25 11:41:52;;;;;;;3.73;2.00;;;;;;;;;;5052359;28;20199;-68
2023/03/25 11:44:24;;;;;;;1.73;1.23;;;;;;;;;;5055200;28;20246;-68
2023/03/25 11:47:01;;;;;;;2.03;1.30;;;;;;;;;;5033555;28;20197;-67
2023/03/25 11:49:28;;;;;;;2.80;1.07;;;;;;;;;;5051528;28;20191;-66
2023/03/25 11:52:17;;;;;;;3.53;1.50;;;;;;;;;;5033526;28;20238;-66
2023/03/25 11:54:54;;;;;;;3.53;1.60;;;;;;;;;;5049645;28;20302;-67
2023/03/25 12:01:45;;;;;;;4.17;1.90;;;;;;;;;;5037932;28;20186;-66
2023/03/25 12:04:21;;;;;;;2.73;1.60;;;;;;;;;;5032161;28;20191;-66
2023/03/25 12:06:52;;;;;;;3.30;1.67;;;;;;;;;;5050208;28;20235;-67
2023/03/25 12:09:19;;;;;;;3.00;1.60;;;;;;;;;;5037557;28;20183;-66
2023/03/25 12:12:05;;;;;;;3.40;1.93;;;;;;;;;;5050192;28;20661;-67
2023/03/25 12:14:47;;;;;;;3.40;1.80;;;;;;;;;;5046507;28;20353;-67
2023/03/25 12:17:21;;;;;;;3.77;1.70;;;;;;;;;;5047249;28;20237;-67
2023/03/25 12:20:01;;;;;;;3.90;1.57;;;;;;;;;;5031787;28;20271;-67
2023/03/25 12:22:28;;;;;;;2.73;1.80;;;;;;;;;;5048170;28;20190;-67
2023/03/25 12:25:10;;;;;;;3.30;1.80;;;;;;;;;;5034175;28;20201;-67
2023/03/25 12:27:56;;;;;;;4.33;1.70;;;;;;;;;;5046070;28;20215;-68
2023/03/25 12:30:25;;;;;;;3.40;1.90;;;;;;;;;;5021272;28;20229;-67
2023/03/25 12:32:52;;;;;;;3.80;1.90;;;;;;;;;;5034165;28;20190;-67
2023/03/25 12:35:35;;;;;;;3.97;1.93;;;;;;;;;;5040457;28;20187;-68
2023/03/25 12:38:02;;;;;;;4.67;2.03;;;;;;;;;;5045125;28;20207;-67
2023/03/25 12:40:32;;;;;;;4.83;2.10;;;;;;;;;;5048102;28;20191;-68
2023/03/25 12:43:05;;;;;;;4.23;2.10;;;;;;;;;;5047967;28;20214;-67
2023/03/25 12:45:32;;;;;;;3.17;1.67;;;;;;;;;;5045420;28;20194;-67
2023/03/25 12:48:08;;;;;;;3.90;2.10;;;;;;;;;;5046882;28;20202;-67
2023/03/25 12:50:41;;;;;;;4.87;1.97;;;;;;;;;;5030278;28;20648;-67
2023/03/25 12:53:47;;;;;;;3.43;1.97;;;;;;;;;;5047670;28;20198;-67
2023/03/25 12:56:17;;;;;;;4.33;1.90;;;;;;;;;;4985190;28;20204;-67
2023/03/25 12:58:44;;;;;;;2.93;1.93;;;;;;;;;;4971345;28;20711;-68
2023/03/25 13:01:14;;;;;;;4.17;2.07;;;;;;;;;;5018344;28;20692;-67
2023/03/25 13:03:41;;;;;;;4.67;1.70;;;;;;;;;;5048742;28;20204;-68
2023/03/25 13:06:15;;;;;;;2.70;1.50;;;;;;;;;;5038873;28;20266;-67
2023/03/25 13:08:54;;;;;;;3.47;1.90;;;;;;;;;;5030626;28;20194;-67
2023/03/25 13:11:24;;;;;;;4.83;1.87;;;;;;;;;;5036595;28;20290;-64
2023/03/25 13:13:51;;;;;;;6.10;1.73;;;;;;;;;;5050168;28;20256;-71
2023/03/25 13:16:19;;;;;;;6.60;2.10;;;;;;;;;;5029548;28;20183;-64
2023/03/25 13:18:49;;;;;;;4.43;1.87;;;;;;;;;;5029473;28;20278;-67
2023/03/25 13:21:25;;;;;;;3.13;1.30;;;;;;;;;;5042725;28;20277;-70
2023/03/25 13:23:57;;;;;;;2.80;1.57;;;;;;;;;;5047041;28;20232;-68
2023/03/25 13:26:25;;;;;;;2.30;1.30;;;;;;;;;;5032720;28;20200;-68
2023/03/25 13:28:57;;;;;;;4.10;1.43;;;;;;;;;;5045375;28;20183;-69
2023/03/25 13:31:26;;;;;;;6.83;3.00;;;;;;;;;;5034002;28;20240;-70
2023/03/25 13:33:56;;;;;;;5.70;2.20;;;;;;;;;;5047419;28;20289;-69
2023/03/25 13:36:30;;;;;;;3.23;1.70;;;;;;;;;;5047818;28;20194;-75
2023/03/25 13:39:03;;;;;;;6.07;2.20;;;;;;;;;;5046335;28;20214;-74
2023/03/25 13:41:41;;;;;;;3.97;2.10;;;;;;;;;;5029039;28;20554;-67
2023/03/25 13:44:18;;;;;;;2.27;1.07;;;;;;;;;;5042604;28;20226;-67
2023/03/25 13:46:52;;;;;;;1.50;0.93;;;;;;;;;;5046251;28;20550;-67
2023/03/25 13:49:24;;;;;;;1.63;0.97;;;;;;;;;;5032823;28;20193;-67
2023/03/25 13:51:52;;;;;;;2.80;1.00;;;;;;;;;;5054359;28;20202;-68
2023/03/25 13:54:33;;;;;;;2.27;1.30;;;;;;;;;;5050733;28;20270;-67
2023/03/25 13:57:16;;;;;;;0.83;0.80;;;;;;;;;;5049305;28;20218;-68
2023/03/25 13:59:43;;;;;;;1.00;0.80;;;;;;;;;;5046206;28;20201;-68
2023/03/25 14:02:13;;;;;;;1.50;0.90;;;;;;;;;;5049875;28;20244;-69
2023/03/25 14:04:59;;;;;;;2.30;1.30;;;;;;;;;;5051039;28;20194;-68
2023/03/25 14:07:26;;;;;;;1.73;1.13;;;;;;;;;;5036603;28;20190;-69
2023/03/25 14:10:02;;;;;;;2.30;1.30;;;;;;;;;;5051030;28;20929;-69
2023/03/25 14:12:30;;;;;;;2.67;1.80;;;;;;;;;;5050907;28;20285;-69
2023/03/25 14:15:03;;;;;;;1.80;1.30;;;;;;;;;;5016041;28;20190;-69
2023/03/25 14:17:30;;;;;;;2.07;1.40;;;;;;;;;;5017786;28;20256;-69
2023/03/25 14:19:57;;;;;;;1.77;1.13;;;;;;;;;;5015201;28;20306;-69
2023/03/25 14:22:30;;;;;;;1.60;1.30;;;;;;;;;;5027780;28;20268;-69
2023/03/25 14:24:58;;;;;;;2.07;1.30;;;;;;;;;;5033298;28;20209;-67
2023/03/25 14:27:32;;;;;;;1.80;1.30;;;;;;;;;;5045803;28;20194;-67
2023/03/25 14:30:00;;;;;;;3.17;1.33;;;;;;;;;;5033369;28;20213;-68
2023/03/25 14:32:34;;;;;;;1.60;1.10;;;;;;;;;;5031129;28;20249;-68
2023/03/25 14:35:33;;;;;;;0.80;0.80;;;;;;;;;;5019516;28;20202;-68
2023/03/25 14:38:06;;;;;;;1.77;1.10;;;;;;;;;;4969050;28;20231;-68
2023/03/25 14:40:45;;;;;;;1.50;1.33;;;;;;;;;;5044978;28;20186;-67
2023/03/25 14:43:18;;;;;;;2.67;1.40;;;;;;;;;;5037468;28;20678;-67
2023/03/25 14:46:05;;;;;;;2.10;1.40;;;;;;;;;;5038471;28;20187;-67
2023/03/25 14:48:50;;;;;;;4.30;1.57;;;;;;;;;;5050068;28;20193;-67
2023/03/25 14:51:20;;;;;;;1.83;1.37;;;;;;;;;;5040989;28;20237;-68
2023/03/25 14:53:50;;;;;;;4.00;1.80;;;;;;;;;;5031133;28;20669;-68
2023/03/25 14:56:17;;;;;;;3.23;2.17;;;;;;;;;;5032211;28;20527;-68
2023/03/25 14:58:47;;;;;;;4.77;2.60;;;;;;;;;;5030946;28;20960;-68
2023/03/25 15:01:13;;;;;;;4.13;2.97;;;;;;;;;;5049990;28;20187;-68
2023/03/25 15:03:42;;;;;;;5.30;2.50;;;;;;;;;;5029648;28;20904;-68
2023/03/25 15:06:27;;;;;;;5.17;2.20;;;;;;;;;;5048499;28;20213;-68
2023/03/25 15:08:58;;;;;;;3.93;2.30;;;;;;;;;;5037993;28;20201;-68
2023/03/25 15:11:32;;;;;;;5.53;2.70;;;;;;;;;;5035169;28;20601;-68
2023/03/25 15:14:05;;;;;;;4.03;1.97;;;;;;;;;;5049642;28;20195;-68
2023/03/25 15:16:35;;;;;;;3.67;1.80;;;;;;;;;;5027546;28;20230;-68
2023/03/25 15:19:05;;;;;;;5.27;2.37;;;;;;;;;;5047839;28;20226;-68
2023/03/25 15:21:34;;;;;;;4.20;1.87;;;;;;;;;;5049514;28;20187;-68
2023/03/25 15:24:10;;;;;;;4.87;2.93;;;;;;;;;;5031634;28;20241;-68
2023/03/25 15:26:41;;;;;;;4.67;2.70;;;;;;;;;;5032164;28;20252;-68
2023/03/25 15:29:30;;;;;;;4.27;2.50;;;;;;;;;;5031875;28;20211;-67
2023/03/25 15:32:06;;;;;;;7.97;3.00;;;;;;;;;;5025769;28;20195;-68
2023/03/25 15:34:33;;;;;;;7.73;3.30;;;;;;;;;;5030945;28;20539;-68
2023/03/25 15:37:09;;;;;;;7.27;3.37;;;;;;;;;;5049379;28;20210;-67
2023/03/25 15:39:36;;;;;;;6.17;2.93;;;;;;;;;;5050655;28;20182;-67